Accueil
METAR-TAF:

METAR-TAF

Aéroports :

Hof, Allemagne

latitude: 50-19N, longitude: 011-53E, altitude: 567 m

Observation

Le bulletin a été fait il y a 11 heures et 27 minutes, à 13:20 UTC
Vent 9 kt de sud-ouest, variant entre sud et ouest
Température 21°C
Humidité 69%
Pression 1016 hPa
Visibilité 10 km ou plus
Nuages épars à une hauteur de 2800 ft

METAR: EDQM 091320Z 23009KT 190V260 9999 SCT028 21/15 Q1016

Heure: 02:47 (00:47 UTC)

Prévision

Le bulletin a été fait il y a 13 heures et 47 minutes, à 11:00 UTC
Prévision valable du 09 à 12 UTC au 09 à 21 UTC
Vent 11 kt de ouest/sud-ouest
Visibilité 10 km ou plus
Quelques nuages à une hauteur de 2000 ft
Nuages fragmentés à une hauteur de 3500 ft
Evoluant progressivement
du 09 à 16 UTC au 09 à 18 UTC
Vent 6 kt de ouest/sud-ouest

TAF: EDQM 091100Z 0912/0921 24011KT 9999 FEW020 BKN035 BECMG 0916/0918 24006KT

Observations et prévisions météorologiques de plus de 4000 aéroports (messages METAR et TAF).

Les stations disponibles sont représentées par des disques jaunes et rouges sur la carte.

Passer la souris dessus pour voir le nom de la station.

Cliquer dessus pour voir les observations et prévisions météorologiques.

Pour changer de carte: cliquez sur les boutons verts avec une croix noire pour zoomer, sur le bouton vert avec un tiret pour effectuer un zoom arrière, ou sur les flèches vertes pour les cartes adjacentes.


METAR-TAF: